Terminal Aerodrome Forecast
Issued by NWS

Home | Current Version | Previous Version | Text Only | Print | Product List | Glossary On
Versions: 1 2 3 4 5 6 7 8 9 10 11 12 13 14 15 16 17 18 19 20 21 22 23 24 25 26 27
546
FTUS41 KOKX 030222 AAA
TAFGON
TAF AMD
KGON 030222Z 0302/0324 VRB05KT 6SM BR SCT007 BKN100
     FM030600 VRB05KT 5SM BR SCT005 BKN015
      TEMPO 0306/0308 BKN005
     FM030800 VRB05KT 3SM RA BR OVC005
     FM031100 06008KT 2SM RA BR OVC005
     FM031600 05010KT 4SM -SHRA BR OVC005
     FM031900 05008KT 6SM BR SCT008 BKN015=

USA.gov is the U.S. government's official web portal to all federal, state and local government web resources and services.